Time;durP1;ratioP1;P1;durP2;ratioP2;P2;SDS_P1;SDS_P2;PMS_P1;PMS_P2;Temp;Humidity;BMP_temperature;BMP_pressure;BME280_temperature;BME280_humidity;BME280_pressure;Samples;Min_cycle;Max_cycle;Signal;HPM_P1;HPM_P2
2021/07/24 00:00:13;;;;;;;42.40;23.15;;;;;;;;;;1484912;40;20021;-63
2021/07/24 00:01:15;;;;;;;41.97;23.88;;;;;;;;;;1485098;40;20410;-63
2021/07/24 00:02:16;;;;;;;46.88;23.95;;;;;;;;;;1484924;40;20036;-63
2021/07/24 00:03:18;;;;;;;42.17;24.05;;;;;;;;;;1484956;40;20024;-63
2021/07/24 00:04:21;;;;;;;49.15;24.15;;;;;;;;;;1485050;40;20025;-63
2021/07/24 00:05:22;;;;;;;46.60;22.80;;;;;;;;;;1485027;40;20381;-63
2021/07/24 00:06:24;;;;;;;43.80;24.60;;;;;;;;;;1485169;40;20028;-63
2021/07/24 00:07:25;;;;;;;42.05;23.63;;;;;;;;;;1484987;40;20020;-63
2021/07/24 00:08:26;;;;;;;48.40;24.52;;;;;;;;;;1485057;40;20025;-63
2021/07/24 00:09:29;;;;;;;36.40;22.50;;;;;;;;;;1484898;40;20029;-63
2021/07/24 00:10:30;;;;;;;43.95;24.52;;;;;;;;;;1485145;40;20024;-63
2021/07/24 00:11:32;;;;;;;44.75;24.85;;;;;;;;;;1485015;40;20032;-63
2021/07/24 00:12:34;;;;;;;42.03;23.48;;;;;;;;;;1484940;40;20029;-63
2021/07/24 00:13:36;;;;;;;40.50;23.67;;;;;;;;;;1485006;40;20032;-63
2021/07/24 00:14:38;;;;;;;42.65;22.73;;;;;;;;;;1485222;40;20035;-63
2021/07/24 00:15:39;;;;;;;43.28;23.65;;;;;;;;;;1484891;40;20269;-63
2021/07/24 00:16:40;;;;;;;44.60;24.52;;;;;;;;;;1485159;40;20028;-63
2021/07/24 00:17:41;;;;;;;43.38;24.30;;;;;;;;;;1484966;40;20021;-63
2021/07/24 00:18:43;;;;;;;52.55;26.50;;;;;;;;;;1484974;40;20040;-63
2021/07/24 00:19:45;;;;;;;44.60;25.13;;;;;;;;;;1484943;40;20446;-63
2021/07/24 00:21:03;;;;;;;41.17;23.63;;;;;;;;;;1485150;40;20021;-63
2021/07/24 00:22:04;;;;;;;44.22;23.55;;;;;;;;;;1485068;40;20028;-63
2021/07/24 00:23:09;;;;;;;47.83;24.90;;;;;;;;;;1485146;40;20036;-63
2021/07/24 00:24:10;;;;;;;41.28;24.08;;;;;;;;;;1484979;40;20144;-63
2021/07/24 00:25:12;;;;;;;45.88;24.38;;;;;;;;;;1485135;40;20118;-63
2021/07/24 00:26:15;;;;;;;43.20;24.40;;;;;;;;;;1484864;40;20032;-63
2021/07/24 00:27:17;;;;;;;43.45;23.88;;;;;;;;;;1484860;40;20035;-63
2021/07/24 00:28:18;;;;;;;45.60;24.45;;;;;;;;;;1484915;40;20017;-63
2021/07/24 00:29:19;;;;;;;46.88;24.83;;;;;;;;;;1485076;40;20025;-63
2021/07/24 00:30:20;;;;;;;44.15;25.73;;;;;;;;;;1484922;40;20021;-63
2021/07/24 00:31:22;;;;;;;45.08;25.23;;;;;;;;;;1484977;40;20023;-63
2021/07/24 00:32:23;;;;;;;42.22;24.38;;;;;;;;;;1484911;40;20032;-63
2021/07/24 00:33:25;;;;;;;47.28;24.65;;;;;;;;;;1484983;40;20036;-63
2021/07/24 00:34:25;;;;;;;45.75;24.83;;;;;;;;;;1484789;40;20025;-63
2021/07/24 00:35:28;;;;;;;42.45;24.50;;;;;;;;;;1484851;40;20032;-63
2021/07/24 00:36:30;;;;;;;41.28;24.23;;;;;;;;;;1484901;40;20024;-63
2021/07/24 00:37:31;;;;;;;46.70;24.40;;;;;;;;;;1484964;40;20028;-63
2021/07/24 00:38:32;;;;;;;42.30;25.20;;;;;;;;;;1484934;40;20025;-63
2021/07/24 00:39:34;;;;;;;44.10;24.42;;;;;;;;;;1484950;40;20028;-63
2021/07/24 00:40:37;;;;;;;43.97;24.90;;;;;;;;;;1484874;40;20025;-63
2021/07/24 00:41:43;;;;;;;44.20;24.77;;;;;;;;;;1485078;40;20024;-63
2021/07/24 00:42:44;;;;;;;45.33;24.38;;;;;;;;;;1484867;40;20044;-63
2021/07/24 00:43:48;;;;;;;45.45;24.58;;;;;;;;;;1484914;40;20392;-63
2021/07/24 00:44:50;;;;;;;43.63;25.02;;;;;;;;;;1484923;40;20047;-63
2021/07/24 00:45:55;;;;;;;41.88;23.60;;;;;;;;;;1484900;40;20035;-64
2021/07/24 00:46:58;;;;;;;43.70;24.83;;;;;;;;;;1484868;40;20120;-63
2021/07/24 00:48:01;;;;;;;41.67;24.45;;;;;;;;;;1484963;40;20372;-63
2021/07/24 00:49:03;;;;;;;47.45;25.35;;;;;;;;;;1484922;40;20021;-63
2021/07/24 00:50:09;;;;;;;46.80;24.75;;;;;;;;;;1484983;40;20384;-63
2021/07/24 00:51:12;;;;;;;49.35;26.30;;;;;;;;;;1484848;40;20021;-63
2021/07/24 00:52:14;;;;;;;44.28;25.13;;;;;;;;;;1485020;40;20029;-63
2021/07/24 00:53:21;;;;;;;42.97;24.85;;;;;;;;;;1484936;40;20025;-63
2021/07/24 00:54:23;;;;;;;48.47;25.30;;;;;;;;;;1485000;40;20388;-63
2021/07/24 00:55:24;;;;;;;49.25;26.67;;;;;;;;;;1484789;40;20036;-64
2021/07/24 00:56:26;;;;;;;49.38;26.52;;;;;;;;;;1484995;40;20029;-63
2021/07/24 00:57:27;;;;;;;44.33;24.67;;;;;;;;;;1484908;40;20032;-63
2021/07/24 00:58:30;;;;;;;43.40;24.90;;;;;;;;;;1484837;40;20401;-63
2021/07/24 00:59:32;;;;;;;43.22;24.02;;;;;;;;;;1484379;40;20028;-63
2021/07/24 01:00:33;;;;;;;45.90;25.58;;;;;;;;;;1484721;40;20024;-63
2021/07/24 01:01:36;;;;;;;47.17;25.88;;;;;;;;;;1484838;40;20025;-63
2021/07/24 01:02:38;;;;;;;46.88;25.85;;;;;;;;;;1480087;40;20412;-63
2021/07/24 01:03:39;;;;;;;42.03;24.52;;;;;;;;;;1480282;40;20037;-63
2021/07/24 01:04:40;;;;;;;46.83;25.42;;;;;;;;;;1484824;40;20032;-63
2021/07/24 01:05:43;;;;;;;44.90;25.67;;;;;;;;;;1485052;40;20021;-63
2021/07/24 01:06:47;;;;;;;43.78;25.20;;;;;;;;;;1484948;40;20025;-63
2021/07/24 01:07:48;;;;;;;50.13;25.90;;;;;;;;;;1485083;40;20020;-63
2021/07/24 01:08:51;;;;;;;47.67;27.00;;;;;;;;;;1484892;40;20021;-63
2021/07/24 01:09:54;;;;;;;44.83;25.55;;;;;;;;;;1484819;40;20036;-63
2021/07/24 01:10:55;;;;;;;49.40;26.98;;;;;;;;;;1484880;40;20059;-63
2021/07/24 01:11:57;;;;;;;45.30;25.98;;;;;;;;;;1484772;40;20033;-63
2021/07/24 01:12:58;;;;;;;46.53;26.35;;;;;;;;;;1484806;40;20292;-63
2021/07/24 01:14:00;;;;;;;50.90;27.38;;;;;;;;;;1484758;40;20032;-63
2021/07/24 01:15:01;;;;;;;45.95;26.20;;;;;;;;;;1484906;40;20276;-63
2021/07/24 01:16:03;;;;;;;45.92;25.75;;;;;;;;;;1484889;40;20025;-63
2021/07/24 01:17:04;;;;;;;46.25;26.20;;;;;;;;;;1484796;40;20032;-63
2021/07/24 01:18:06;;;;;;;43.10;25.88;;;;;;;;;;1484856;40;20047;-63
2021/07/24 01:19:07;;;;;;;49.13;27.92;;;;;;;;;;1484910;40;20265;-64
2021/07/24 01:20:11;;;;;;;49.67;27.15;;;;;;;;;;1484969;40;20031;-63
2021/07/24 01:21:22;;;;;;;48.72;26.90;;;;;;;;;;1484701;40;20032;-63
2021/07/24 01:22:27;;;;;;;51.78;28.10;;;;;;;;;;1485031;40;20021;-63
2021/07/24 01:23:29;;;;;;;45.92;27.45;;;;;;;;;;1484678;40;20029;-64
2021/07/24 01:24:31;;;;;;;50.17;28.25;;;;;;;;;;1485018;40;20032;-63
2021/07/24 01:25:32;;;;;;;50.08;30.05;;;;;;;;;;1484980;40;20025;-63
2021/07/24 01:26:35;;;;;;;49.45;29.33;;;;;;;;;;1484932;40;20036;-63
2021/07/24 01:27:41;;;;;;;50.03;29.27;;;;;;;;;;1484698;40;20292;-63
2021/07/24 01:28:42;;;;;;;50.17;28.63;;;;;;;;;;1484906;40;20060;-63
2021/07/24 01:29:43;;;;;;;51.28;28.40;;;;;;;;;;1484735;40;20025;-63
2021/07/24 01:30:45;;;;;;;52.60;30.15;;;;;;;;;;1484942;40;20376;-63
2021/07/24 01:31:46;;;;;;;54.53;30.00;;;;;;;;;;1484633;40;20040;-63
2021/07/24 01:32:47;;;;;;;49.97;28.52;;;;;;;;;;1484849;40;20025;-63
2021/07/24 01:33:48;;;;;;;51.33;29.30;;;;;;;;;;1484615;40;20091;-63
2021/07/24 01:34:50;;;;;;;54.17;28.77;;;;;;;;;;1484994;40;20336;-63
2021/07/24 01:35:52;;;;;;;50.67;28.33;;;;;;;;;;1484843;40;20067;-63
2021/07/24 01:36:55;;;;;;;52.90;28.92;;;;;;;;;;1484785;40;20024;-63
2021/07/24 01:37:55;;;;;;;48.17;27.42;;;;;;;;;;1484777;40;20024;-63
2021/07/24 01:38:58;;;;;;;49.38;27.83;;;;;;;;;;1484812;40;20036;-63
2021/07/24 01:39:58;;;;;;;53.63;29.73;;;;;;;;;;1484741;40;20384;-63
2021/07/24 01:41:00;;;;;;;51.70;28.50;;;;;;;;;;1484953;40;20036;-63
2021/07/24 01:42:01;;;;;;;53.75;28.42;;;;;;;;;;1484793;40;20277;-63
2021/07/24 01:43:03;;;;;;;49.85;28.70;;;;;;;;;;1484846;40;20025;-63
2021/07/24 01:44:04;;;;;;;47.47;28.05;;;;;;;;;;1484783;40;20044;-63
2021/07/24 01:45:07;;;;;;;53.00;28.60;;;;;;;;;;1484812;40;20025;-63
2021/07/24 01:46:08;;;;;;;52.83;28.20;;;;;;;;;;1484715;40;20017;-63
2021/07/24 01:47:09;;;;;;;46.85;27.65;;;;;;;;;;1484853;40;20021;-63
2021/07/24 01:48:14;;;;;;;48.20;27.48;;;;;;;;;;1484732;40;20092;-63
2021/07/24 01:52:46;;;;;;;51.90;28.63;;;;;;;;;;1484907;40;20041;-63
2021/07/24 01:53:32;;;;;;;50.40;28.75;;;;;;;;;;1484637;40;20021;-63
2021/07/24 01:54:37;;;;;;;52.35;27.90;;;;;;;;;;1484826;40;20036;-63
2021/07/24 01:55:42;;;;;;;55.38;28.00;;;;;;;;;;1484645;40;20033;-63
2021/07/24 01:56:44;;;;;;;54.17;29.08;;;;;;;;;;1484748;40;20033;-63
2021/07/24 01:57:48;;;;;;;46.00;28.17;;;;;;;;;;1484604;40;20024;-63
2021/07/24 01:58:50;;;;;;;49.63;28.88;;;;;;;;;;1484788;40;20100;-63
2021/07/24 01:59:54;;;;;;;52.30;28.42;;;;;;;;;;1484590;40;20025;-63
2021/07/24 02:00:59;;;;;;;51.13;29.25;;;;;;;;;;1484619;40;20304;-63
2021/07/24 02:02:00;;;;;;;53.25;28.17;;;;;;;;;;1484603;40;20276;-63
2021/07/24 02:03:09;;;;;;;46.95;27.88;;;;;;;;;;1484757;40;20029;-63
2021/07/24 02:04:15;;;;;;;55.38;28.90;;;;;;;;;;1484550;40;20032;-63
2021/07/24 02:05:29;;;;;;;52.65;28.17;;;;;;;;;;1480133;40;20041;-63
2021/07/24 02:06:30;;;;;;;49.42;28.15;;;;;;;;;;1480972;40;20025;-63
2021/07/24 02:07:38;;;;;;;49.60;28.58;;;;;;;;;;1484722;40;20389;-63
2021/07/24 02:08:43;;;;;;;52.00;29.23;;;;;;;;;;1484710;40;20108;-63
2021/07/24 02:09:45;;;;;;;50.85;29.33;;;;;;;;;;1484864;40;20029;-63
2021/07/24 02:10:47;;;;;;;50.35;28.60;;;;;;;;;;1484632;40;20384;-63
2021/07/24 02:11:49;;;;;;;54.97;28.58;;;;;;;;;;1484770;40;20029;-63
2021/07/24 02:12:50;;;;;;;52.25;29.25;;;;;;;;;;1484675;40;20032;-63
2021/07/24 02:13:52;;;;;;;50.97;28.98;;;;;;;;;;1484581;40;20389;-63
2021/07/24 02:14:53;;;;;;;50.72;28.52;;;;;;;;;;1484633;40;20400;-63
2021/07/24 02:15:56;;;;;;;50.22;28.20;;;;;;;;;;1484737;40;20020;-63
2021/07/24 02:16:58;;;;;;;54.60;28.92;;;;;;;;;;1484623;40;20021;-63
2021/07/24 02:18:01;;;;;;;49.35;27.05;;;;;;;;;;1484732;40;20381;-63
2021/07/24 02:19:02;;;;;;;51.95;28.38;;;;;;;;;;1484849;40;20134;-63
2021/07/24 02:20:06;;;;;;;50.00;27.55;;;;;;;;;;1484760;40;20115;-63
2021/07/24 02:21:09;;;;;;;49.80;28.45;;;;;;;;;;1484536;40;20025;-63
2021/07/24 02:22:11;;;;;;;51.10;28.60;;;;;;;;;;1484796;40;20443;-63
2021/07/24 02:23:13;;;;;;;57.65;28.63;;;;;;;;;;1484660;40;20029;-64
2021/07/24 02:24:15;;;;;;;48.67;27.73;;;;;;;;;;1484781;40;20072;-63
2021/07/24 02:25:16;;;;;;;54.33;29.00;;;;;;;;;;1484601;40;20380;-63
2021/07/24 02:26:18;;;;;;;48.63;28.63;;;;;;;;;;1484848;40;20020;-63
2021/07/24 02:27:19;;;;;;;46.55;27.42;;;;;;;;;;1484508;40;20025;-63
2021/07/24 02:28:20;;;;;;;51.95;28.42;;;;;;;;;;1484583;40;20028;-63
2021/07/24 02:29:21;;;;;;;54.00;27.90;;;;;;;;;;1484543;40;20021;-63
2021/07/24 02:30:23;;;;;;;51.63;29.05;;;;;;;;;;1484794;40;20025;-64
2021/07/24 02:31:24;;;;;;;50.42;28.15;;;;;;;;;;1484515;40;20025;-63
2021/07/24 02:32:26;;;;;;;51.75;28.55;;;;;;;;;;1484610;40;20024;-63
2021/07/24 02:33:27;;;;;;;55.65;29.17;;;;;;;;;;1484550;40;20032;-63
2021/07/24 02:34:28;;;;;;;48.90;28.42;;;;;;;;;;1484605;40;20024;-63
2021/07/24 02:35:30;;;;;;;53.28;28.83;;;;;;;;;;1484780;40;20029;-63
2021/07/24 02:36:31;;;;;;;53.40;29.00;;;;;;;;;;1484542;40;20021;-63
2021/07/24 02:37:33;;;;;;;51.70;28.42;;;;;;;;;;1484648;40;20080;-63
2021/07/24 02:38:35;;;;;;;50.58;27.98;;;;;;;;;;1484664;40;20032;-63
2021/07/24 02:39:37;;;;;;;53.70;27.92;;;;;;;;;;1484631;40;20025;-63
2021/07/24 02:40:40;;;;;;;51.17;28.38;;;;;;;;;;1479847;40;20028;-64
2021/07/24 02:41:41;;;;;;;54.13;28.42;;;;;;;;;;1480167;40;20057;-63
2021/07/24 02:42:42;;;;;;;50.40;27.75;;;;;;;;;;1484512;40;20028;-63
2021/07/24 02:43:44;;;;;;;48.30;27.13;;;;;;;;;;1484630;40;20029;-63
2021/07/24 02:44:45;;;;;;;51.33;27.88;;;;;;;;;;1484680;40;20403;-64
2021/07/24 02:45:47;;;;;;;48.35;28.00;;;;;;;;;;1484588;40;20029;-63
2021/07/24 02:46:47;;;;;;;49.08;27.40;;;;;;;;;;1484588;40;20021;-63
2021/07/24 02:47:49;;;;;;;47.83;27.55;;;;;;;;;;1484578;40;20029;-63
2021/07/24 02:48:50;;;;;;;49.35;27.88;;;;;;;;;;1484664;40;20029;-63
2021/07/24 02:49:52;;;;;;;52.53;28.50;;;;;;;;;;1484747;40;20050;-63
2021/07/24 02:50:53;;;;;;;49.28;27.70;;;;;;;;;;1484471;40;20032;-63
2021/07/24 02:51:54;;;;;;;52.38;27.77;;;;;;;;;;1484833;40;20025;-63
2021/07/24 02:52:56;;;;;;;52.80;27.98;;;;;;;;;;1484575;40;20032;-63
2021/07/24 02:53:58;;;;;;;47.47;27.83;;;;;;;;;;1484481;40;20033;-63
2021/07/24 02:55:00;;;;;;;50.03;27.23;;;;;;;;;;1484689;40;20388;-63
2021/07/24 02:56:01;;;;;;;46.80;26.60;;;;;;;;;;1484569;40;20037;-63
2021/07/24 02:57:03;;;;;;;47.05;26.58;;;;;;;;;;1484591;40;20041;-63
2021/07/24 02:58:04;;;;;;;49.10;27.95;;;;;;;;;;1484579;40;20073;-63
2021/07/24 02:59:05;;;;;;;42.33;26.10;;;;;;;;;;1484549;40;20434;-63
2021/07/24 03:00:07;;;;;;;52.20;27.33;;;;;;;;;;1484547;40;20051;-63
2021/07/24 03:01:09;;;;;;;51.13;26.50;;;;;;;;;;1484873;40;20041;-63
2021/07/24 03:02:12;;;;;;;46.80;26.75;;;;;;;;;;1484445;40;20021;-63
2021/07/24 03:03:14;;;;;;;48.70;27.27;;;;;;;;;;1484575;40;20032;-63
2021/07/24 03:04:15;;;;;;;48.33;27.27;;;;;;;;;;1484486;40;20025;-63
2021/07/24 03:05:17;;;;;;;52.30;27.08;;;;;;;;;;1479931;40;20018;-63
2021/07/24 03:06:18;;;;;;;51.47;27.40;;;;;;;;;;1480044;40;20029;-64
2021/07/24 03:07:19;;;;;;;52.90;26.60;;;;;;;;;;1484697;40;20032;-63
2021/07/24 03:08:20;;;;;;;48.42;25.60;;;;;;;;;;1484438;40;20024;-64
2021/07/24 03:09:23;;;;;;;41.97;24.83;;;;;;;;;;1484631;40;20032;-63
2021/07/24 03:10:24;;;;;;;51.22;25.27;;;;;;;;;;1484669;40;20021;-64
2021/07/24 03:11:26;;;;;;;46.45;25.85;;;;;;;;;;1484800;40;20032;-63
2021/07/24 03:12:27;;;;;;;47.17;27.13;;;;;;;;;;1484697;40;20048;-63
2021/07/24 03:13:29;;;;;;;46.53;26.02;;;;;;;;;;1484628;40;20028;-63
2021/07/24 03:14:29;;;;;;;48.50;26.25;;;;;;;;;;1484415;40;20028;-63
2021/07/24 03:15:31;;;;;;;45.63;25.98;;;;;;;;;;1484579;40;20025;-63
2021/07/24 03:16:32;;;;;;;50.90;27.40;;;;;;;;;;1484488;40;20028;-63
2021/07/24 03:17:34;;;;;;;47.75;26.27;;;;;;;;;;1484563;40;20044;-63
2021/07/24 03:18:35;;;;;;;44.78;25.67;;;;;;;;;;1484502;40;20025;-63
2021/07/24 03:19:36;;;;;;;54.08;27.65;;;;;;;;;;1484652;40;20021;-64
2021/07/24 03:20:37;;;;;;;53.17;26.63;;;;;;;;;;1484470;40;20045;-63
2021/07/24 03:21:39;;;;;;;48.03;27.13;;;;;;;;;;1484595;40;20036;-63
2021/07/24 03:22:40;;;;;;;46.65;26.38;;;;;;;;;;1484121;40;20033;-63
2021/07/24 03:23:41;;;;;;;50.15;27.13;;;;;;;;;;1484434;40;20031;-63
2021/07/24 03:24:43;;;;;;;52.97;27.05;;;;;;;;;;1484450;40;20021;-63
2021/07/24 03:25:45;;;;;;;47.33;25.88;;;;;;;;;;1484559;40;20288;-63
2021/07/24 03:26:46;;;;;;;50.47;26.10;;;;;;;;;;1484400;40;20403;-63
2021/07/24 03:27:48;;;;;;;46.30;26.08;;;;;;;;;;1484474;40;20069;-63
2021/07/24 03:28:49;;;;;;;47.80;26.15;;;;;;;;;;1484460;40;20029;-63
2021/07/24 03:29:51;;;;;;;45.75;25.67;;;;;;;;;;1484450;40;20032;-63
2021/07/24 03:30:51;;;;;;;48.67;26.30;;;;;;;;;;1484471;40;20025;-63
2021/07/24 03:31:53;;;;;;;48.60;25.30;;;;;;;;;;1484423;40;20036;-63
2021/07/24 03:32:54;;;;;;;49.08;26.65;;;;;;;;;;1484559;40;20024;-63
2021/07/24 03:33:56;;;;;;;48.97;26.40;;;;;;;;;;1484554;40;20431;-63
2021/07/24 03:34:56;;;;;;;45.85;26.63;;;;;;;;;;1484418;40;20051;-63
2021/07/24 03:35:58;;;;;;;49.50;26.23;;;;;;;;;;1484532;40;20086;-63
2021/07/24 03:37:00;;;;;;;50.75;25.38;;;;;;;;;;1484383;40;20032;-63
2021/07/24 03:38:03;;;;;;;51.35;26.67;;;;;;;;;;1484334;40;20025;-63
2021/07/24 03:39:05;;;;;;;49.13;26.60;;;;;;;;;;1484557;40;20061;-63
2021/07/24 03:40:08;;;;;;;48.08;26.15;;;;;;;;;;1484512;40;20021;-63
2021/07/24 03:41:10;;;;;;;46.08;26.65;;;;;;;;;;1484373;40;20100;-63
2021/07/24 03:42:11;;;;;;;45.83;26.27;;;;;;;;;;1484452;40;20384;-63
2021/07/24 03:43:13;;;;;;;48.88;25.63;;;;;;;;;;1484649;40;20032;-63
2021/07/24 03:44:14;;;;;;;47.72;26.63;;;;;;;;;;1484280;40;20033;-63
2021/07/24 03:45:16;;;;;;;46.30;26.52;;;;;;;;;;1484503;40;20028;-63
2021/07/24 03:46:19;;;;;;;47.15;26.20;;;;;;;;;;1484308;40;20029;-63
2021/07/24 03:47:20;;;;;;;50.30;26.15;;;;;;;;;;1484486;40;20032;-63
2021/07/24 03:48:21;;;;;;;49.00;26.25;;;;;;;;;;1484302;40;20021;-63
2021/07/24 03:49:23;;;;;;;47.42;25.52;;;;;;;;;;1484398;40;20040;-63
2021/07/24 03:50:24;;;;;;;47.47;26.35;;;;;;;;;;1484460;40;20033;-63
2021/07/24 03:51:26;;;;;;;52.63;26.25;;;;;;;;;;1484668;40;20025;-63
2021/07/24 03:52:26;;;;;;;45.75;25.73;;;;;;;;;;1484500;40;20029;-63
2021/07/24 03:53:28;;;;;;;49.20;26.38;;;;;;;;;;1484420;40;20036;-63
2021/07/24 03:54:29;;;;;;;46.60;24.90;;;;;;;;;;1484316;40;20400;-63
2021/07/24 03:55:34;;;;;;;44.00;24.85;;;;;;;;;;1484393;40;20025;-63
2021/07/24 03:56:35;;;;;;;44.97;25.40;;;;;;;;;;1484407;40;20184;-63
2021/07/24 03:57:38;;;;;;;50.45;26.15;;;;;;;;;;1484504;40;20397;-63
2021/07/24 03:58:38;;;;;;;47.42;26.00;;;;;;;;;;1484316;40;20025;-63
2021/07/24 03:59:40;;;;;;;46.05;25.50;;;;;;;;;;1484558;40;20043;-63
2021/07/24 04:00:44;;;;;;;50.58;26.48;;;;;;;;;;1484445;40;20021;-63
2021/07/24 04:01:48;;;;;;;50.63;26.88;;;;;;;;;;1484339;40;20021;-63
2021/07/24 04:02:49;;;;;;;51.30;26.00;;;;;;;;;;1484337;40;20031;-63
2021/07/24 04:03:52;;;;;;;48.47;27.13;;;;;;;;;;1484311;40;20281;-63
2021/07/24 04:04:53;;;;;;;47.45;25.75;;;;;;;;;;1484263;40;20036;-63
2021/07/24 04:05:55;;;;;;;45.67;26.13;;;;;;;;;;1484474;40;20122;-63
2021/07/24 04:06:56;;;;;;;54.65;27.38;;;;;;;;;;1484271;40;20036;-63
2021/07/24 04:07:59;;;;;;;48.35;26.55;;;;;;;;;;1484464;40;20036;-63
2021/07/24 04:09:01;;;;;;;55.47;27.73;;;;;;;;;;1484397;40;20025;-63
2021/07/24 04:10:03;;;;;;;52.08;26.77;;;;;;;;;;1484499;40;20399;-63
2021/07/24 04:11:05;;;;;;;51.90;27.98;;;;;;;;;;1484363;40;20388;-63
2021/07/24 04:12:10;;;;;;;51.90;27.35;;;;;;;;;;1484379;40;20029;-64
2021/07/24 04:13:11;;;;;;;50.00;26.80;;;;;;;;;;1484544;40;20032;-63
2021/07/24 04:14:15;;;;;;;52.70;27.45;;;;;;;;;;1484310;40;20028;-63
2021/07/24 04:15:15;;;;;;;48.25;27.67;;;;;;;;;;1484428;40;20036;-63
2021/07/24 04:16:17;;;;;;;53.88;28.05;;;;;;;;;;1484356;40;20392;-63
2021/07/24 04:17:18;;;;;;;51.45;27.08;;;;;;;;;;1484223;40;20284;-63
2021/07/24 04:18:24;;;;;;;53.30;26.75;;;;;;;;;;1484387;40;20396;-63
2021/07/24 04:19:25;;;;;;;54.38;27.55;;;;;;;;;;1484254;40;20140;-63
2021/07/24 04:20:27;;;;;;;49.17;27.98;;;;;;;;;;1484370;40;20094;-63
2021/07/24 04:21:28;;;;;;;48.70;26.85;;;;;;;;;;1484203;40;20052;-63
2021/07/24 04:22:30;;;;;;;46.22;26.50;;;;;;;;;;1484341;40;20024;-63
2021/07/24 04:23:31;;;;;;;45.40;26.92;;;;;;;;;;1484076;40;20032;-64
2021/07/24 04:24:32;;;;;;;49.60;26.67;;;;;;;;;;1484419;40;20017;-63
2021/07/24 04:25:33;;;;;;;47.03;26.88;;;;;;;;;;1484419;40;20024;-63
2021/07/24 04:26:36;;;;;;;49.35;26.83;;;;;;;;;;1484283;40;20032;-63
2021/07/24 04:27:37;;;;;;;50.53;26.55;;;;;;;;;;1484292;40;20266;-63
2021/07/24 04:28:39;;;;;;;50.22;27.73;;;;;;;;;;1484289;40;20031;-63
2021/07/24 04:29:40;;;;;;;50.78;25.77;;;;;;;;;;1484269;40;20323;-63
2021/07/24 04:30:42;;;;;;;48.03;26.83;;;;;;;;;;1484277;40;20028;-63
2021/07/24 04:31:43;;;;;;;49.28;25.60;;;;;;;;;;1484173;40;20416;-63
2021/07/24 04:32:44;;;;;;;48.70;26.30;;;;;;;;;;1484393;40;20032;-63
2021/07/24 04:33:46;;;;;;;46.13;25.83;;;;;;;;;;1484302;40;20036;-63
2021/07/24 04:34:47;;;;;;;50.90;26.27;;;;;;;;;;1484619;40;20025;-63
2021/07/24 04:35:49;;;;;;;48.63;26.38;;;;;;;;;;1484952;40;20118;-63
2021/07/24 04:36:50;;;;;;;46.28;26.58;;;;;;;;;;1484854;40;20033;-63
2021/07/24 04:37:52;;;;;;;47.67;25.33;;;;;;;;;;1485082;40;20025;-63
2021/07/24 04:38:53;;;;;;;46.28;26.65;;;;;;;;;;1484928;40;20025;-63
2021/07/24 04:39:54;;;;;;;51.05;26.42;;;;;;;;;;1484955;40;20025;-63
2021/07/24 04:40:55;;;;;;;46.20;24.63;;;;;;;;;;1484980;40;20021;-63
2021/07/24 04:41:58;;;;;;;49.17;26.75;;;;;;;;;;1484931;40;20029;-63
2021/07/24 04:42:59;;;;;;;47.70;25.83;;;;;;;;;;1484931;40;20024;-63
2021/07/24 04:44:01;;;;;;;46.08;25.75;;;;;;;;;;1484818;40;20056;-63
2021/07/24 04:45:02;;;;;;;45.40;25.23;;;;;;;;;;1480223;40;20021;-63
2021/07/24 04:46:06;;;;;;;47.05;25.63;;;;;;;;;;1480226;40;20102;-63
2021/07/24 04:47:07;;;;;;;45.38;25.67;;;;;;;;;;1484953;40;20395;-63
2021/07/24 04:48:09;;;;;;;43.92;25.20;;;;;;;;;;1484869;40;20025;-63
2021/07/24 04:49:10;;;;;;;48.75;26.63;;;;;;;;;;1484822;40;20389;-63
2021/07/24 04:50:12;;;;;;;43.33;25.25;;;;;;;;;;1484941;40;20021;-63
2021/07/24 04:51:15;;;;;;;47.50;25.42;;;;;;;;;;1484927;40;20269;-63
2021/07/24 04:52:17;;;;;;;46.10;25.55;;;;;;;;;;1484935;40;20032;-63
2021/07/24 04:53:20;;;;;;;48.28;25.08;;;;;;;;;;1484808;40;20021;-63
2021/07/24 04:54:21;;;;;;;48.45;26.88;;;;;;;;;;1484890;40;20032;-63
2021/07/24 04:55:24;;;;;;;45.28;24.55;;;;;;;;;;1485066;40;20029;-63
2021/07/24 04:56:26;;;;;;;44.17;25.75;;;;;;;;;;1484840;40;20032;-63
2021/07/24 04:57:31;;;;;;;47.92;25.83;;;;;;;;;;1484916;40;20024;-63
2021/07/24 04:58:33;;;;;;;46.92;25.80;;;;;;;;;;1484953;40;20025;-63
2021/07/24 04:59:37;;;;;;;45.03;24.80;;;;;;;;;;1485075;40;20021;-64
2021/07/24 05:00:38;;;;;;;47.10;25.17;;;;;;;;;;1484960;40;20451;-63
2021/07/24 05:01:40;;;;;;;49.67;25.25;;;;;;;;;;1484941;40;20436;-63
2021/07/24 05:02:42;;;;;;;45.70;24.55;;;;;;;;;;1484946;40;20028;-63
2021/07/24 05:03:44;;;;;;;47.35;26.13;;;;;;;;;;1484853;40;20356;-63
2021/07/24 05:04:46;;;;;;;44.28;23.75;;;;;;;;;;1484934;40;20036;-63
2021/07/24 05:05:49;;;;;;;48.80;26.15;;;;;;;;;;1485064;40;20029;-63
2021/07/24 05:06:50;;;;;;;42.03;24.65;;;;;;;;;;1484858;40;20481;-63
2021/07/24 05:07:52;;;;;;;43.33;24.27;;;;;;;;;;1485012;40;20103;-63
2021/07/24 05:08:53;;;;;;;49.17;25.45;;;;;;;;;;1484752;40;20033;-63
2021/07/24 05:09:54;;;;;;;48.45;25.30;;;;;;;;;;1484904;40;20040;-63
2021/07/24 05:10:55;;;;;;;46.15;25.38;;;;;;;;;;1484871;40;20028;-63
2021/07/24 05:11:57;;;;;;;45.60;24.45;;;;;;;;;;1484931;40;20029;-63
2021/07/24 05:12:59;;;;;;;43.72;24.58;;;;;;;;;;1484818;40;20024;-63
2021/07/24 05:14:01;;;;;;;48.28;24.55;;;;;;;;;;1484856;40;20035;-63
2021/07/24 05:15:02;;;;;;;42.25;24.05;;;;;;;;;;1484818;40;20055;-63
2021/07/24 05:16:04;;;;;;;45.80;24.42;;;;;;;;;;1484878;40;20025;-63
2021/07/24 05:17:06;;;;;;;50.00;25.25;;;;;;;;;;1484766;40;20043;-63
2021/07/24 05:18:08;;;;;;;46.55;24.65;;;;;;;;;;1484910;40;20033;-63
2021/07/24 05:19:09;;;;;;;41.42;24.15;;;;;;;;;;1480049;40;20114;-63
2021/07/24 05:20:11;;;;;;;46.85;23.63;;;;;;;;;;1480372;40;20095;-63
2021/07/24 05:21:15;;;;;;;42.20;23.63;;;;;;;;;;1484816;40;20399;-63
2021/07/24 05:22:17;;;;;;;42.25;24.35;;;;;;;;;;1480240;40;20032;-63
2021/07/24 05:23:18;;;;;;;43.45;24.50;;;;;;;;;;1480178;40;20028;-63
2021/07/24 05:24:20;;;;;;;43.00;24.25;;;;;;;;;;1485101;40;20055;-63
2021/07/24 05:25:20;;;;;;;41.38;23.40;;;;;;;;;;1484699;40;20025;-63
2021/07/24 05:26:22;;;;;;;46.55;24.83;;;;;;;;;;1484891;40;20028;-63
2021/07/24 05:27:23;;;;;;;42.85;23.77;;;;;;;;;;1484858;40;20024;-63
2021/07/24 05:28:26;;;;;;;44.78;24.17;;;;;;;;;;1484732;40;20028;-64
2021/07/24 05:29:27;;;;;;;42.08;23.60;;;;;;;;;;1484702;40;20032;-64
2021/07/24 05:30:29;;;;;;;42.78;24.17;;;;;;;;;;1484894;40;20029;-64
2021/07/24 05:31:30;;;;;;;46.35;25.20;;;;;;;;;;1484762;40;20032;-63
2021/07/24 05:32:34;;;;;;;44.58;23.58;;;;;;;;;;1484807;40;20061;-64
2021/07/24 05:33:35;;;;;;;39.65;23.13;;;;;;;;;;1484698;40;20110;-63
2021/07/24 05:34:36;;;;;;;43.55;22.98;;;;;;;;;;1484755;40;20374;-63
2021/07/24 05:35:37;;;;;;;41.50;24.02;;;;;;;;;;1484708;40;20031;-63
2021/07/24 05:36:39;;;;;;;41.47;23.05;;;;;;;;;;1484936;40;20044;-64
2021/07/24 05:37:40;;;;;;;39.03;23.17;;;;;;;;;;1484651;40;20035;-63
2021/07/24 05:38:42;;;;;;;39.15;22.58;;;;;;;;;;1484830;40;20029;-63
2021/07/24 05:39:42;;;;;;;41.72;22.73;;;;;;;;;;1484741;40;20017;-63
2021/07/24 05:40:44;;;;;;;39.65;21.10;;;;;;;;;;1484762;40;20036;-63
2021/07/24 05:41:45;;;;;;;37.22;22.30;;;;;;;;;;1484756;40;20025;-64
2021/07/24 05:42:47;;;;;;;38.75;21.98;;;;;;;;;;1484874;40;20032;-64
2021/07/24 05:43:49;;;;;;;40.17;23.10;;;;;;;;;;1484614;40;20032;-63
2021/07/24 05:44:51;;;;;;;39.08;22.77;;;;;;;;;;1480099;40;20033;-63
2021/07/24 05:45:51;;;;;;;45.85;24.40;;;;;;;;;;1479863;40;20025;-63
2021/07/24 05:46:53;;;;;;;41.58;23.98;;;;;;;;;;1484639;40;20025;-63
2021/07/24 05:47:54;;;;;;;42.28;23.60;;;;;;;;;;1484752;40;20048;-63
2021/07/24 05:48:56;;;;;;;39.53;22.13;;;;;;;;;;1480098;40;20029;-63
2021/07/24 05:49:57;;;;;;;39.42;22.90;;;;;;;;;;1480230;40;20032;-64
2021/07/24 05:51:06;;;;;;;39.22;21.95;;;;;;;;;;1484798;40;20363;-63
2021/07/24 05:52:08;;;;;;;42.55;23.13;;;;;;;;;;1484839;40;20296;-63
2021/07/24 05:53:10;;;;;;;40.00;22.58;;;;;;;;;;1484751;40;20024;-64
2021/07/24 05:54:11;;;;;;;39.65;22.67;;;;;;;;;;1484581;40;20036;-64
2021/07/24 05:55:13;;;;;;;38.33;21.50;;;;;;;;;;1484925;40;20028;-64
2021/07/24 05:56:13;;;;;;;38.35;22.45;;;;;;;;;;1484718;40;20021;-63
2021/07/24 05:57:16;;;;;;;38.15;22.50;;;;;;;;;;1484908;40;20029;-64
2021/07/24 05:58:17;;;;;;;36.13;21.85;;;;;;;;;;1484812;40;20021;-63
2021/07/24 05:59:20;;;;;;;40.53;22.73;;;;;;;;;;1484857;40;20289;-63
2021/07/24 06:00:21;;;;;;;37.90;22.73;;;;;;;;;;1484701;40;20032;-64
2021/07/24 06:01:22;;;;;;;37.30;22.15;;;;;;;;;;1484656;40;20021;-63
2021/07/24 06:02:23;;;;;;;37.78;21.77;;;;;;;;;;1480013;40;20340;-63
2021/07/24 06:03:25;;;;;;;38.40;21.17;;;;;;;;;;1480076;40;20028;-63